sensor_id;sensor_type;location;lat;lon;timestamp;P1;durP1;ratioP1;P2;durP2;ratioP2
70148;SDS011;57514;52.164;5.282;2024-03-06T00:00:18;28.58;;;15.73;;
70148;SDS011;57514;52.164;5.282;2024-03-06T00:02:46;26.20;;;15.07;;
70148;SDS011;57514;52.164;5.282;2024-03-06T00:05:14;26.08;;;15.20;;
70148;SDS011;57514;52.164;5.282;2024-03-06T00:07:41;29.92;;;16.75;;
70148;SDS011;57514;52.164;5.282;2024-03-06T00:10:08;28.63;;;16.52;;
70148;SDS011;57514;52.164;5.282;2024-03-06T00:12:36;29.45;;;16.48;;
70148;SDS011;57514;52.164;5.282;2024-03-06T00:15:03;27.60;;;16.88;;
70148;SDS011;57514;52.164;5.282;2024-03-06T00:17:30;26.08;;;16.23;;
70148;SDS011;57514;52.164;5.282;2024-03-06T00:19:58;24.08;;;14.93;;
70148;SDS011;57514;52.164;5.282;2024-03-06T00:22:25;25.13;;;16.05;;
70148;SDS011;57514;52.164;5.282;2024-03-06T00:24:52;26.90;;;15.85;;
70148;SDS011;57514;52.164;5.282;2024-03-06T00:27:19;27.52;;;15.27;;
70148;SDS011;57514;52.164;5.282;2024-03-06T00:29:47;26.25;;;15.63;;
70148;SDS011;57514;52.164;5.282;2024-03-06T00:32:14;25.83;;;14.43;;
70148;SDS011;57514;52.164;5.282;2024-03-06T00:34:41;28.92;;;16.60;;
70148;SDS011;57514;52.164;5.282;2024-03-06T00:37:08;23.52;;;15.18;;
70148;SDS011;57514;52.164;5.282;2024-03-06T00:39:36;26.80;;;15.52;;
70148;SDS011;57514;52.164;5.282;2024-03-06T00:42:03;28.27;;;16.27;;
70148;SDS011;57514;52.164;5.282;2024-03-06T00:44:31;26.00;;;15.43;;
70148;SDS011;57514;52.164;5.282;2024-03-06T00:46:58;28.23;;;15.63;;
70148;SDS011;57514;52.164;5.282;2024-03-06T00:49:25;25.88;;;15.05;;
70148;SDS011;57514;52.164;5.282;2024-03-06T00:51:52;24.90;;;14.32;;
70148;SDS011;57514;52.164;5.282;2024-03-06T00:54:20;27.60;;;15.25;;
70148;SDS011;57514;52.164;5.282;2024-03-06T00:56:48;31.52;;;15.55;;
70148;SDS011;57514;52.164;5.282;2024-03-06T00:59:15;27.58;;;16.08;;
70148;SDS011;57514;52.164;5.282;2024-03-06T01:01:43;23.48;;;14.43;;
70148;SDS011;57514;52.164;5.282;2024-03-06T01:04:10;27.67;;;16.40;;
70148;SDS011;57514;52.164;5.282;2024-03-06T01:06:37;27.35;;;16.60;;
70148;SDS011;57514;52.164;5.282;2024-03-06T01:09:04;29.90;;;16.95;;
70148;SDS011;57514;52.164;5.282;2024-03-06T01:11:31;29.90;;;16.42;;
70148;SDS011;57514;52.164;5.282;2024-03-06T01:13:59;29.95;;;17.55;;
70148;SDS011;57514;52.164;5.282;2024-03-06T01:16:26;28.95;;;16.52;;
70148;SDS011;57514;52.164;5.282;2024-03-06T01:18:53;28.80;;;16.08;;
70148;SDS011;57514;52.164;5.282;2024-03-06T01:21:21;26.52;;;16.38;;
70148;SDS011;57514;52.164;5.282;2024-03-06T01:23:48;30.20;;;16.75;;
70148;SDS011;57514;52.164;5.282;2024-03-06T01:26:15;26.35;;;15.93;;
70148;SDS011;57514;52.164;5.282;2024-03-06T01:28:43;21.92;;;14.15;;
70148;SDS011;57514;52.164;5.282;2024-03-06T01:31:12;26.60;;;15.88;;
70148;SDS011;57514;52.164;5.282;2024-03-06T01:33:39;26.35;;;15.48;;
70148;SDS011;57514;52.164;5.282;2024-03-06T01:36:06;26.50;;;15.88;;
70148;SDS011;57514;52.164;5.282;2024-03-06T01:38:33;27.63;;;14.82;;
70148;SDS011;57514;52.164;5.282;2024-03-06T01:41:00;25.15;;;14.88;;
70148;SDS011;57514;52.164;5.282;2024-03-06T01:43:27;26.90;;;16.15;;
70148;SDS011;57514;52.164;5.282;2024-03-06T01:45:54;29.20;;;15.68;;
70148;SDS011;57514;52.164;5.282;2024-03-06T01:48:23;25.85;;;16.00;;
70148;SDS011;57514;52.164;5.282;2024-03-06T01:50:52;29.17;;;16.83;;
70148;SDS011;57514;52.164;5.282;2024-03-06T01:53:20;24.85;;;15.30;;
70148;SDS011;57514;52.164;5.282;2024-03-06T01:55:47;29.15;;;16.27;;
70148;SDS011;57514;52.164;5.282;2024-03-06T01:58:15;27.45;;;16.67;;
70148;SDS011;57514;52.164;5.282;2024-03-06T02:00:42;30.45;;;18.48;;
70148;SDS011;57514;52.164;5.282;2024-03-06T02:03:10;27.92;;;16.60;;
70148;SDS011;57514;52.164;5.282;2024-03-06T02:05:38;29.92;;;16.95;;
70148;SDS011;57514;52.164;5.282;2024-03-06T02:08:05;30.83;;;17.98;;
70148;SDS011;57514;52.164;5.282;2024-03-06T02:10:33;27.33;;;16.90;;
70148;SDS011;57514;52.164;5.282;2024-03-06T02:13:00;34.70;;;19.05;;
70148;SDS011;57514;52.164;5.282;2024-03-06T02:15:28;32.15;;;19.50;;
70148;SDS011;57514;52.164;5.282;2024-03-06T02:17:55;34.13;;;18.80;;
70148;SDS011;57514;52.164;5.282;2024-03-06T02:20:25;37.20;;;20.17;;
70148;SDS011;57514;52.164;5.282;2024-03-06T02:22:53;29.92;;;18.23;;
70148;SDS011;57514;52.164;5.282;2024-03-06T02:25:20;35.92;;;18.98;;
70148;SDS011;57514;52.164;5.282;2024-03-06T02:27:47;32.13;;;18.38;;
70148;SDS011;57514;52.164;5.282;2024-03-06T02:30:15;29.65;;;17.38;;
70148;SDS011;57514;52.164;5.282;2024-03-06T02:32:46;34.22;;;18.98;;
70148;SDS011;57514;52.164;5.282;2024-03-06T02:35:14;31.55;;;18.80;;
70148;SDS011;57514;52.164;5.282;2024-03-06T02:37:42;30.13;;;17.98;;
70148;SDS011;57514;52.164;5.282;2024-03-06T02:40:10;27.88;;;17.70;;
70148;SDS011;57514;52.164;5.282;2024-03-06T02:42:38;30.05;;;17.30;;
70148;SDS011;57514;52.164;5.282;2024-03-06T02:45:08;26.67;;;16.67;;
70148;SDS011;57514;52.164;5.282;2024-03-06T02:47:36;31.08;;;16.42;;
70148;SDS011;57514;52.164;5.282;2024-03-06T02:50:03;32.78;;;17.80;;
70148;SDS011;57514;52.164;5.282;2024-03-06T02:52:31;33.05;;;17.85;;
70148;SDS011;57514;52.164;5.282;2024-03-06T02:54:58;32.08;;;17.23;;
70148;SDS011;57514;52.164;5.282;2024-03-06T02:57:26;31.48;;;18.75;;
70148;SDS011;57514;52.164;5.282;2024-03-06T02:59:57;31.13;;;18.33;;
70148;SDS011;57514;52.164;5.282;2024-03-06T03:02:24;32.20;;;17.55;;
70148;SDS011;57514;52.164;5.282;2024-03-06T03:04:52;29.63;;;17.77;;
70148;SDS011;57514;52.164;5.282;2024-03-06T03:07:19;30.80;;;17.60;;
70148;SDS011;57514;52.164;5.282;2024-03-06T03:09:47;31.45;;;18.55;;
70148;SDS011;57514;52.164;5.282;2024-03-06T03:12:14;32.13;;;18.00;;
70148;SDS011;57514;52.164;5.282;2024-03-06T03:14:42;31.10;;;17.95;;
70148;SDS011;57514;52.164;5.282;2024-03-06T03:17:09;30.38;;;18.38;;
70148;SDS011;57514;52.164;5.282;2024-03-06T03:19:37;32.30;;;17.98;;
70148;SDS011;57514;52.164;5.282;2024-03-06T03:22:06;34.28;;;18.88;;
70148;SDS011;57514;52.164;5.282;2024-03-06T03:24:35;35.22;;;19.90;;
70148;SDS011;57514;52.164;5.282;2024-03-06T03:29:34;32.58;;;16.67;;
70148;SDS011;57514;52.164;5.282;2024-03-06T03:32:01;32.72;;;17.60;;
70148;SDS011;57514;52.164;5.282;2024-03-06T03:34:28;32.55;;;18.58;;
70148;SDS011;57514;52.164;5.282;2024-03-06T03:36:56;31.77;;;18.10;;
70148;SDS011;57514;52.164;5.282;2024-03-06T03:39:24;31.88;;;18.17;;
70148;SDS011;57514;52.164;5.282;2024-03-06T03:41:51;30.90;;;18.13;;
70148;SDS011;57514;52.164;5.282;2024-03-06T03:44:18;35.10;;;18.67;;
70148;SDS011;57514;52.164;5.282;2024-03-06T03:46:46;30.77;;;17.73;;
70148;SDS011;57514;52.164;5.282;2024-03-06T03:49:13;31.00;;;18.48;;
70148;SDS011;57514;52.164;5.282;2024-03-06T03:51:41;31.65;;;18.42;;
70148;SDS011;57514;52.164;5.282;2024-03-06T03:54:08;36.83;;;20.52;;
70148;SDS011;57514;52.164;5.282;2024-03-06T03:56:36;33.80;;;19.15;;
70148;SDS011;57514;52.164;5.282;2024-03-06T03:59:03;35.30;;;20.88;;
70148;SDS011;57514;52.164;5.282;2024-03-06T04:01:31;33.47;;;19.40;;
70148;SDS011;57514;52.164;5.282;2024-03-06T04:03:58;34.88;;;19.85;;
70148;SDS011;57514;52.164;5.282;2024-03-06T04:06:25;33.70;;;18.75;;
70148;SDS011;57514;52.164;5.282;2024-03-06T04:08:52;32.28;;;18.17;;
70148;SDS011;57514;52.164;5.282;2024-03-06T04:11:19;33.30;;;18.48;;
70148;SDS011;57514;52.164;5.282;2024-03-06T04:13:47;38.78;;;20.08;;
70148;SDS011;57514;52.164;5.282;2024-03-06T04:16:17;33.03;;;18.90;;
70148;SDS011;57514;52.164;5.282;2024-03-06T04:21:12;31.75;;;17.25;;
70148;SDS011;57514;52.164;5.282;2024-03-06T04:23:41;35.60;;;19.80;;
70148;SDS011;57514;52.164;5.282;2024-03-06T04:26:08;35.53;;;18.92;;
70148;SDS011;57514;52.164;5.282;2024-03-06T04:28:35;32.38;;;19.17;;
70148;SDS011;57514;52.164;5.282;2024-03-06T04:31:02;36.05;;;19.83;;
70148;SDS011;57514;52.164;5.282;2024-03-06T04:33:29;34.78;;;20.00;;
70148;SDS011;57514;52.164;5.282;2024-03-06T04:35:56;35.50;;;20.45;;
70148;SDS011;57514;52.164;5.282;2024-03-06T04:38:23;35.22;;;21.33;;
70148;SDS011;57514;52.164;5.282;2024-03-06T04:40:51;36.08;;;19.67;;
70148;SDS011;57514;52.164;5.282;2024-03-06T04:43:18;35.30;;;21.05;;
70148;SDS011;57514;52.164;5.282;2024-03-06T04:45:46;34.85;;;18.65;;
70148;SDS011;57514;52.164;5.282;2024-03-06T04:48:13;36.20;;;19.42;;
70148;SDS011;57514;52.164;5.282;2024-03-06T04:50:40;36.15;;;19.65;;
70148;SDS011;57514;52.164;5.282;2024-03-06T04:53:08;31.20;;;18.38;;
70148;SDS011;57514;52.164;5.282;2024-03-06T04:55:37;37.38;;;19.15;;
70148;SDS011;57514;52.164;5.282;2024-03-06T04:58:04;37.65;;;21.00;;
70148;SDS011;57514;52.164;5.282;2024-03-06T05:00:32;36.55;;;20.35;;
70148;SDS011;57514;52.164;5.282;2024-03-06T05:03:00;36.08;;;20.45;;
70148;SDS011;57514;52.164;5.282;2024-03-06T05:05:44;37.63;;;19.77;;
70148;SDS011;57514;52.164;5.282;2024-03-06T05:08:29;34.33;;;19.65;;
70148;SDS011;57514;52.164;5.282;2024-03-06T05:11:15;37.85;;;20.85;;
70148;SDS011;57514;52.164;5.282;2024-03-06T05:14:00;39.90;;;22.48;;
70148;SDS011;57514;52.164;5.282;2024-03-06T05:16:45;37.25;;;21.55;;
70148;SDS011;57514;52.164;5.282;2024-03-06T05:19:29;39.05;;;21.17;;
70148;SDS011;57514;52.164;5.282;2024-03-06T05:22:15;42.15;;;22.15;;
70148;SDS011;57514;52.164;5.282;2024-03-06T05:25:00;42.40;;;21.73;;
70148;SDS011;57514;52.164;5.282;2024-03-06T05:27:45;38.13;;;20.77;;
70148;SDS011;57514;52.164;5.282;2024-03-06T05:30:29;38.30;;;19.48;;
70148;SDS011;57514;52.164;5.282;2024-03-06T05:33:14;38.22;;;20.27;;
70148;SDS011;57514;52.164;5.282;2024-03-06T05:35:59;40.03;;;21.15;;
70148;SDS011;57514;52.164;5.282;2024-03-06T05:38:44;37.65;;;19.15;;
70148;SDS011;57514;52.164;5.282;2024-03-06T05:41:29;34.92;;;19.50;;
70148;SDS011;57514;52.164;5.282;2024-03-06T05:44:14;33.35;;;19.23;;
70148;SDS011;57514;52.164;5.282;2024-03-06T05:46:59;33.90;;;18.80;;
70148;SDS011;57514;52.164;5.282;2024-03-06T05:49:44;34.17;;;18.83;;
70148;SDS011;57514;52.164;5.282;2024-03-06T05:52:30;34.97;;;19.08;;
70148;SDS011;57514;52.164;5.282;2024-03-06T05:55:15;31.40;;;17.35;;
70148;SDS011;57514;52.164;5.282;2024-03-06T05:58:00;34.35;;;19.42;;
70148;SDS011;57514;52.164;5.282;2024-03-06T06:00:40;34.65;;;18.73;;
70148;SDS011;57514;52.164;5.282;2024-03-06T06:03:08;35.92;;;19.08;;
70148;SDS011;57514;52.164;5.282;2024-03-06T06:08:06;30.45;;;17.48;;
70148;SDS011;57514;52.164;5.282;2024-03-06T06:10:34;32.08;;;18.65;;
70148;SDS011;57514;52.164;5.282;2024-03-06T06:13:01;167.10;;;22.83;;
70148;SDS011;57514;52.164;5.282;2024-03-06T06:15:31;37.05;;;16.88;;
70148;SDS011;57514;52.164;5.282;2024-03-06T06:18:00;38.00;;;18.75;;
70148;SDS011;57514;52.164;5.282;2024-03-06T06:20:28;34.35;;;17.33;;
70148;SDS011;57514;52.164;5.282;2024-03-06T06:22:56;27.48;;;15.48;;
70148;SDS011;57514;52.164;5.282;2024-03-06T06:25:24;31.05;;;16.48;;
70148;SDS011;57514;52.164;5.282;2024-03-06T06:27:50;31.88;;;18.05;;
70148;SDS011;57514;52.164;5.282;2024-03-06T06:30:18;33.75;;;17.13;;
70148;SDS011;57514;52.164;5.282;2024-03-06T06:32:45;48.78;;;19.90;;
70148;SDS011;57514;52.164;5.282;2024-03-06T06:35:12;99.50;;;21.80;;
70148;SDS011;57514;52.164;5.282;2024-03-06T06:37:40;50.58;;;19.65;;
70148;SDS011;57514;52.164;5.282;2024-03-06T06:40:08;162.35;;;23.95;;
70148;SDS011;57514;52.164;5.282;2024-03-06T06:42:35;59.85;;;18.98;;
70148;SDS011;57514;52.164;5.282;2024-03-06T06:45:03;101.15;;;22.15;;
70148;SDS011;57514;52.164;5.282;2024-03-06T06:47:33;164.75;;;23.88;;
70148;SDS011;57514;52.164;5.282;2024-03-06T06:50:00;94.63;;;22.05;;
70148;SDS011;57514;52.164;5.282;2024-03-06T06:52:31;123.63;;;23.08;;
70148;SDS011;57514;52.164;5.282;2024-03-06T06:55:00;97.88;;;21.92;;
70148;SDS011;57514;52.164;5.282;2024-03-06T06:57:27;92.53;;;23.13;;
70148;SDS011;57514;52.164;5.282;2024-03-06T06:59:54;120.78;;;23.42;;
70148;SDS011;57514;52.164;5.282;2024-03-06T07:02:21;128.85;;;24.42;;
70148;SDS011;57514;52.164;5.282;2024-03-06T07:04:49;92.97;;;22.00;;
70148;SDS011;57514;52.164;5.282;2024-03-06T07:07:16;196.07;;;22.77;;
70148;SDS011;57514;52.164;5.282;2024-03-06T07:09:43;122.10;;;21.50;;
70148;SDS011;57514;52.164;5.282;2024-03-06T07:12:11;115.75;;;20.25;;
70148;SDS011;57514;52.164;5.282;2024-03-06T07:14:38;78.30;;;19.35;;
70148;SDS011;57514;52.164;5.282;2024-03-06T07:17:05;98.75;;;20.30;;
70148;SDS011;57514;52.164;5.282;2024-03-06T07:19:32;76.38;;;18.15;;
70148;SDS011;57514;52.164;5.282;2024-03-06T07:21:59;40.88;;;19.38;;
70148;SDS011;57514;52.164;5.282;2024-03-06T07:24:27;75.32;;;17.48;;
70148;SDS011;57514;52.164;5.282;2024-03-06T07:26:54;64.00;;;17.80;;
70148;SDS011;57514;52.164;5.282;2024-03-06T07:29:21;113.00;;;15.75;;
70148;SDS011;57514;52.164;5.282;2024-03-06T07:31:49;75.10;;;17.02;;
70148;SDS011;57514;52.164;5.282;2024-03-06T07:34:16;38.92;;;15.10;;
70148;SDS011;57514;52.164;5.282;2024-03-06T07:36:44;51.42;;;17.35;;
70148;SDS011;57514;52.164;5.282;2024-03-06T07:41:42;30.92;;;14.35;;
70148;SDS011;57514;52.164;5.282;2024-03-06T07:44:09;34.25;;;15.68;;
70148;SDS011;57514;52.164;5.282;2024-03-06T07:46:36;42.80;;;16.17;;
70148;SDS011;57514;52.164;5.282;2024-03-06T07:49:03;51.53;;;16.63;;
70148;SDS011;57514;52.164;5.282;2024-03-06T07:51:31;35.88;;;14.70;;
70148;SDS011;57514;52.164;5.282;2024-03-06T07:53:59;38.25;;;16.60;;
70148;SDS011;57514;52.164;5.282;2024-03-06T07:56:26;33.90;;;15.63;;
70148;SDS011;57514;52.164;5.282;2024-03-06T07:58:54;30.55;;;16.85;;
70148;SDS011;57514;52.164;5.282;2024-03-06T08:01:22;27.38;;;15.70;;
70148;SDS011;57514;52.164;5.282;2024-03-06T08:03:50;34.88;;;15.90;;
70148;SDS011;57514;52.164;5.282;2024-03-06T08:06:18;37.10;;;15.93;;
70148;SDS011;57514;52.164;5.282;2024-03-06T08:08:45;51.17;;;16.95;;
70148;SDS011;57514;52.164;5.282;2024-03-06T08:11:12;28.67;;;14.25;;
70148;SDS011;57514;52.164;5.282;2024-03-06T08:13:40;30.13;;;14.55;;
70148;SDS011;57514;52.164;5.282;2024-03-06T08:16:07;36.00;;;15.57;;
70148;SDS011;57514;52.164;5.282;2024-03-06T08:18:36;56.65;;;19.60;;
70148;SDS011;57514;52.164;5.282;2024-03-06T08:21:03;38.75;;;17.48;;
70148;SDS011;57514;52.164;5.282;2024-03-06T08:23:32;37.88;;;16.60;;
70148;SDS011;57514;52.164;5.282;2024-03-06T08:26:00;26.27;;;16.05;;
70148;SDS011;57514;52.164;5.282;2024-03-06T08:28:27;38.83;;;15.77;;
70148;SDS011;57514;52.164;5.282;2024-03-06T08:30:54;23.92;;;15.40;;
70148;SDS011;57514;52.164;5.282;2024-03-06T08:33:21;28.80;;;14.23;;
70148;SDS011;57514;52.164;5.282;2024-03-06T08:35:49;31.60;;;15.65;;
70148;SDS011;57514;52.164;5.282;2024-03-06T08:38:17;37.83;;;17.58;;
70148;SDS011;57514;52.164;5.282;2024-03-06T08:40:44;23.30;;;11.80;;
70148;SDS011;57514;52.164;5.282;2024-03-06T08:43:12;35.42;;;17.10;;
70148;SDS011;57514;52.164;5.282;2024-03-06T08:45:42;40.42;;;14.45;;
70148;SDS011;57514;52.164;5.282;2024-03-06T08:48:09;35.20;;;17.73;;
70148;SDS011;57514;52.164;5.282;2024-03-06T08:50:38;42.40;;;17.23;;
70148;SDS011;57514;52.164;5.282;2024-03-06T08:53:05;34.25;;;16.70;;
70148;SDS011;57514;52.164;5.282;2024-03-06T08:55:33;28.92;;;16.23;;
70148;SDS011;57514;52.164;5.282;2024-03-06T08:58:00;27.00;;;15.60;;
70148;SDS011;57514;52.164;5.282;2024-03-06T09:00:28;34.15;;;16.98;;
70148;SDS011;57514;52.164;5.282;2024-03-06T09:02:55;30.15;;;16.98;;
70148;SDS011;57514;52.164;5.282;2024-03-06T09:05:22;29.65;;;17.13;;
70148;SDS011;57514;52.164;5.282;2024-03-06T09:07:50;27.23;;;15.63;;
70148;SDS011;57514;52.164;5.282;2024-03-06T09:10:17;31.10;;;17.58;;
70148;SDS011;57514;52.164;5.282;2024-03-06T09:12:45;29.88;;;17.77;;
70148;SDS011;57514;52.164;5.282;2024-03-06T09:15:14;33.30;;;18.15;;
70148;SDS011;57514;52.164;5.282;2024-03-06T09:17:42;28.40;;;17.35;;
70148;SDS011;57514;52.164;5.282;2024-03-06T09:20:11;28.42;;;17.52;;
70148;SDS011;57514;52.164;5.282;2024-03-06T09:22:40;28.27;;;16.65;;
70148;SDS011;57514;52.164;5.282;2024-03-06T09:25:08;29.52;;;16.60;;
70148;SDS011;57514;52.164;5.282;2024-03-06T09:27:35;28.23;;;16.85;;
70148;SDS011;57514;52.164;5.282;2024-03-06T09:30:02;26.55;;;16.55;;
70148;SDS011;57514;52.164;5.282;2024-03-06T09:32:30;29.25;;;17.42;;
70148;SDS011;57514;52.164;5.282;2024-03-06T09:34:58;26.25;;;15.95;;
70148;SDS011;57514;52.164;5.282;2024-03-06T09:37:26;27.55;;;16.55;;
70148;SDS011;57514;52.164;5.282;2024-03-06T09:39:54;28.55;;;17.80;;
70148;SDS011;57514;52.164;5.282;2024-03-06T09:42:23;26.98;;;15.63;;
70148;SDS011;57514;52.164;5.282;2024-03-06T09:44:50;29.35;;;18.23;;
70148;SDS011;57514;52.164;5.282;2024-03-06T09:47:19;28.38;;;18.52;;
70148;SDS011;57514;52.164;5.282;2024-03-06T09:49:51;25.40;;;16.42;;
70148;SDS011;57514;52.164;5.282;2024-03-06T09:52:20;25.95;;;17.08;;
70148;SDS011;57514;52.164;5.282;2024-03-06T09:54:48;21.58;;;13.40;;
70148;SDS011;57514;52.164;5.282;2024-03-06T09:57:15;25.13;;;15.88;;
70148;SDS011;57514;52.164;5.282;2024-03-06T09:59:43;26.30;;;16.73;;
70148;SDS011;57514;52.164;5.282;2024-03-06T10:02:18;19.05;;;13.57;;
70148;SDS011;57514;52.164;5.282;2024-03-06T10:04:51;19.25;;;13.18;;
70148;SDS011;57514;52.164;5.282;2024-03-06T10:07:18;21.75;;;14.23;;
70148;SDS011;57514;52.164;5.282;2024-03-06T10:09:46;23.25;;;15.00;;
70148;SDS011;57514;52.164;5.282;2024-03-06T10:12:16;20.65;;;13.80;;
70148;SDS011;57514;52.164;5.282;2024-03-06T10:14:49;21.23;;;15.07;;
70148;SDS011;57514;52.164;5.282;2024-03-06T10:17:19;20.90;;;14.77;;
70148;SDS011;57514;52.164;5.282;2024-03-06T10:19:50;21.70;;;14.82;;
70148;SDS011;57514;52.164;5.282;2024-03-06T10:22:18;22.38;;;15.90;;
70148;SDS011;57514;52.164;5.282;2024-03-06T10:24:47;25.80;;;17.67;;
70148;SDS011;57514;52.164;5.282;2024-03-06T10:27:17;25.48;;;17.85;;
70148;SDS011;57514;52.164;5.282;2024-03-06T10:29:44;25.40;;;17.17;;
70148;SDS011;57514;52.164;5.282;2024-03-06T10:32:16;26.00;;;18.85;;
70148;SDS011;57514;52.164;5.282;2024-03-06T10:34:47;28.23;;;20.08;;
70148;SDS011;57514;52.164;5.282;2024-03-06T10:37:14;29.23;;;20.58;;
70148;SDS011;57514;52.164;5.282;2024-03-06T10:39:42;27.15;;;20.08;;
70148;SDS011;57514;52.164;5.282;2024-03-06T10:42:12;29.48;;;21.30;;
70148;SDS011;57514;52.164;5.282;2024-03-06T10:44:43;28.88;;;21.90;;
70148;SDS011;57514;52.164;5.282;2024-03-06T10:47:17;27.38;;;20.23;;
70148;SDS011;57514;52.164;5.282;2024-03-06T10:49:46;26.60;;;19.50;;
70148;SDS011;57514;52.164;5.282;2024-03-06T10:52:14;25.63;;;20.17;;
70148;SDS011;57514;52.164;5.282;2024-03-06T10:54:44;26.08;;;18.13;;
70148;SDS011;57514;52.164;5.282;2024-03-06T10:57:13;22.63;;;17.23;;
70148;SDS011;57514;52.164;5.282;2024-03-06T10:59:40;24.10;;;17.40;;
70148;SDS011;57514;52.164;5.282;2024-03-06T11:02:09;25.55;;;18.98;;
70148;SDS011;57514;52.164;5.282;2024-03-06T11:04:38;23.30;;;17.95;;
70148;SDS011;57514;52.164;5.282;2024-03-06T11:07:07;23.83;;;18.30;;
70148;SDS011;57514;52.164;5.282;2024-03-06T11:09:38;21.45;;;15.95;;
70148;SDS011;57514;52.164;5.282;2024-03-06T11:12:06;22.98;;;17.50;;
70148;SDS011;57514;52.164;5.282;2024-03-06T11:14:37;21.77;;;17.10;;
70148;SDS011;57514;52.164;5.282;2024-03-06T11:17:09;19.55;;;15.45;;
70148;SDS011;57514;52.164;5.282;2024-03-06T11:28:18;19.75;;;13.55;;
70148;SDS011;57514;52.164;5.282;2024-03-06T11:31:05;18.02;;;12.23;;
70148;SDS011;57514;52.164;5.282;2024-03-06T11:41:14;19.63;;;13.23;;
70148;SDS011;57514;52.164;5.282;2024-03-06T11:43:44;17.00;;;12.40;;
70148;SDS011;57514;52.164;5.282;2024-03-06T11:46:11;17.85;;;13.23;;
70148;SDS011;57514;52.164;5.282;2024-03-06T11:48:38;19.45;;;11.60;;
70148;SDS011;57514;52.164;5.282;2024-03-06T11:51:06;19.63;;;13.18;;
70148;SDS011;57514;52.164;5.282;2024-03-06T11:53:33;16.90;;;11.40;;
70148;SDS011;57514;52.164;5.282;2024-03-06T11:56:06;19.23;;;11.65;;
70148;SDS011;57514;52.164;5.282;2024-03-06T11:58:35;17.73;;;11.05;;
70148;SDS011;57514;52.164;5.282;2024-03-06T12:01:03;17.95;;;11.50;;
70148;SDS011;57514;52.164;5.282;2024-03-06T12:03:30;18.10;;;11.30;;
70148;SDS011;57514;52.164;5.282;2024-03-06T12:05:57;20.50;;;11.68;;
70148;SDS011;57514;52.164;5.282;2024-03-06T12:08:25;18.80;;;12.10;;
70148;SDS011;57514;52.164;5.282;2024-03-06T12:10:52;18.38;;;10.73;;
70148;SDS011;57514;52.164;5.282;2024-03-06T12:13:22;19.95;;;12.57;;
70148;SDS011;57514;52.164;5.282;2024-03-06T12:15:49;20.75;;;12.07;;
70148;SDS011;57514;52.164;5.282;2024-03-06T12:18:19;18.60;;;11.73;;
70148;SDS011;57514;52.164;5.282;2024-03-06T12:20:49;18.80;;;11.15;;
70148;SDS011;57514;52.164;5.282;2024-03-06T12:23:23;17.98;;;11.10;;
70148;SDS011;57514;52.164;5.282;2024-03-06T12:26:05;18.42;;;11.48;;
70148;SDS011;57514;52.164;5.282;2024-03-06T12:28:35;18.98;;;11.75;;
70148;SDS011;57514;52.164;5.282;2024-03-06T12:31:03;19.40;;;11.55;;
70148;SDS011;57514;52.164;5.282;2024-03-06T12:33:31;18.40;;;10.77;;
70148;SDS011;57514;52.164;5.282;2024-03-06T12:36:04;17.75;;;10.35;;
70148;SDS011;57514;52.164;5.282;2024-03-06T12:38:33;15.75;;;9.13;;
70148;SDS011;57514;52.164;5.282;2024-03-06T12:41:00;18.83;;;9.40;;
70148;SDS011;57514;52.164;5.282;2024-03-06T12:43:28;19.27;;;8.35;;
70148;SDS011;57514;52.164;5.282;2024-03-06T12:45:55;16.10;;;9.95;;
70148;SDS011;57514;52.164;5.282;2024-03-06T12:48:25;14.38;;;8.38;;
70148;SDS011;57514;52.164;5.282;2024-03-06T12:50:52;17.80;;;8.75;;
70148;SDS011;57514;52.164;5.282;2024-03-06T12:53:21;12.52;;;7.13;;
70148;SDS011;57514;52.164;5.282;2024-03-06T12:55:49;13.15;;;7.50;;
70148;SDS011;57514;52.164;5.282;2024-03-06T12:58:16;13.32;;;7.07;;
70148;SDS011;57514;52.164;5.282;2024-03-06T13:00:44;10.82;;;6.18;;
70148;SDS011;57514;52.164;5.282;2024-03-06T13:03:10;13.00;;;6.95;;
70148;SDS011;57514;52.164;5.282;2024-03-06T13:05:38;15.35;;;8.63;;
70148;SDS011;57514;52.164;5.282;2024-03-06T13:08:05;18.45;;;8.95;;
70148;SDS011;57514;52.164;5.282;2024-03-06T13:10:32;14.05;;;8.48;;
70148;SDS011;57514;52.164;5.282;2024-03-06T13:13:01;13.45;;;8.75;;
70148;SDS011;57514;52.164;5.282;2024-03-06T13:15:28;15.50;;;8.25;;
70148;SDS011;57514;52.164;5.282;2024-03-06T13:17:56;17.45;;;8.90;;
70148;SDS011;57514;52.164;5.282;2024-03-06T13:20:23;16.05;;;9.00;;
70148;SDS011;57514;52.164;5.282;2024-03-06T13:22:50;15.60;;;8.55;;
70148;SDS011;57514;52.164;5.282;2024-03-06T13:25:17;14.80;;;8.35;;
70148;SDS011;57514;52.164;5.282;2024-03-06T13:27:45;16.27;;;8.55;;
70148;SDS011;57514;52.164;5.282;2024-03-06T13:30:13;16.20;;;8.00;;
70148;SDS011;57514;52.164;5.282;2024-03-06T13:32:40;14.57;;;7.95;;
70148;SDS011;57514;52.164;5.282;2024-03-06T13:35:09;14.80;;;8.40;;
70148;SDS011;57514;52.164;5.282;2024-03-06T13:37:41;16.08;;;7.63;;
70148;SDS011;57514;52.164;5.282;2024-03-06T13:40:12;12.90;;;6.53;;
70148;SDS011;57514;52.164;5.282;2024-03-06T13:42:40;13.75;;;6.88;;
70148;SDS011;57514;52.164;5.282;2024-03-06T13:45:10;12.52;;;6.53;;
70148;SDS011;57514;52.164;5.282;2024-03-06T13:47:38;12.70;;;6.53;;
70148;SDS011;57514;52.164;5.282;2024-03-06T13:50:13;13.60;;;6.10;;
70148;SDS011;57514;52.164;5.282;2024-03-06T13:52:41;14.27;;;6.47;;
70148;SDS011;57514;52.164;5.282;2024-03-06T13:55:09;13.65;;;6.05;;
70148;SDS011;57514;52.164;5.282;2024-03-06T13:57:37;13.85;;;6.00;;
70148;SDS011;57514;52.164;5.282;2024-03-06T14:00:08;11.75;;;6.10;;
70148;SDS011;57514;52.164;5.282;2024-03-06T14:02:39;12.68;;;6.28;;
70148;SDS011;57514;52.164;5.282;2024-03-06T14:05:07;12.18;;;6.85;;
70148;SDS011;57514;52.164;5.282;2024-03-06T14:07:34;12.68;;;6.70;;
70148;SDS011;57514;52.164;5.282;2024-03-06T14:10:01;14.98;;;6.90;;
70148;SDS011;57514;52.164;5.282;2024-03-06T14:12:31;11.55;;;6.45;;
70148;SDS011;57514;52.164;5.282;2024-03-06T14:14:58;13.13;;;7.05;;
70148;SDS011;57514;52.164;5.282;2024-03-06T14:17:25;13.32;;;7.25;;
70148;SDS011;57514;52.164;5.282;2024-03-06T14:19:52;14.07;;;6.93;;
70148;SDS011;57514;52.164;5.282;2024-03-06T14:22:20;13.60;;;6.75;;
70148;SDS011;57514;52.164;5.282;2024-03-06T14:24:47;12.77;;;7.07;;
70148;SDS011;57514;52.164;5.282;2024-03-06T14:27:14;13.75;;;6.45;;
70148;SDS011;57514;52.164;5.282;2024-03-06T14:29:42;11.95;;;7.20;;
70148;SDS011;57514;52.164;5.282;2024-03-06T14:32:18;15.48;;;6.70;;
70148;SDS011;57514;52.164;5.282;2024-03-06T14:34:45;13.43;;;6.15;;
70148;SDS011;57514;52.164;5.282;2024-03-06T14:37:13;15.38;;;6.00;;
70148;SDS011;57514;52.164;5.282;2024-03-06T14:39:40;12.35;;;6.25;;
70148;SDS011;57514;52.164;5.282;2024-03-06T14:42:08;14.30;;;6.18;;
70148;SDS011;57514;52.164;5.282;2024-03-06T14:44:36;13.52;;;6.03;;
70148;SDS011;57514;52.164;5.282;2024-03-06T14:47:04;12.30;;;6.20;;
70148;SDS011;57514;52.164;5.282;2024-03-06T14:49:32;10.95;;;5.97;;
70148;SDS011;57514;52.164;5.282;2024-03-06T14:52:00;12.73;;;6.35;;
70148;SDS011;57514;52.164;5.282;2024-03-06T14:54:28;11.93;;;5.47;;
70148;SDS011;57514;52.164;5.282;2024-03-06T14:56:55;10.63;;;6.15;;
70148;SDS011;57514;52.164;5.282;2024-03-06T14:59:23;13.30;;;6.30;;